Time;durP1;ratioP1;P1;durP2;ratioP2;P2;SDS_P1;SDS_P2;PMS_P1;PMS_P2;Temp;Humidity;BMP_temperature;BMP_pressure;BME280_temperature;BME280_humidity;BME280_pressure;Samples;Min_cycle;Max_cycle;Signal;HPM_P1;HPM_P2
2022/06/01 00:04:29;;;;;;;1.90;1.77;;;18.10;34.00;;;;;;10577549;28;20477;-76
2022/06/01 00:09:32;;;;;;;2.57;1.90;;;18.10;33.40;;;;;;10576658;28;20227;-75
2022/06/01 00:14:37;;;;;;;2.00;1.90;;;18.10;33.30;;;;;;10577314;27;20633;-77
2022/06/01 00:19:40;;;;;;;2.40;1.90;;;18.10;34.10;;;;;;10576866;28;20592;-76
2022/06/01 00:24:46;;;;;;;1.87;1.77;;;18.00;33.50;;;;;;10576110;28;20738;-75
2022/06/01 00:29:51;;;;;;;2.80;2.10;;;18.00;33.90;;;;;;10576346;28;20233;-75
2022/06/01 00:34:55;;;;;;;2.20;2.00;;;18.00;34.20;;;;;;10598991;27;20752;-75
2022/06/01 00:39:58;;;;;;;2.17;2.00;;;17.90;33.60;;;;;;10604284;27;20231;-75
2022/06/01 00:45:06;;;;;;;2.07;1.93;;;17.80;33.70;;;;;;10598597;27;20236;-75
2022/06/01 00:50:13;;;;;;;2.37;2.17;;;17.70;34.50;;;;;;10615890;27;20215;-75
2022/06/01 00:55:18;;;;;;;2.10;1.90;;;17.50;34.30;;;;;;10577772;27;20262;-76
2022/06/01 01:00:25;;;;;;;2.07;1.87;;;17.40;34.20;;;;;;10558621;28;20287;-75
2022/06/01 01:05:30;;;;;;;1.73;1.60;;;17.30;35.00;;;;;;10582978;28;20876;-76
2022/06/01 01:10:37;;;;;;;1.70;1.60;;;17.30;34.30;;;;;;10582687;27;20246;-76
2022/06/01 01:15:51;;;;;;;1.90;1.80;;;17.30;35.00;;;;;;10582997;27;20579;-75
2022/06/01 01:21:03;;;;;;;1.80;1.70;;;17.30;35.50;;;;;;10582561;27;20317;-75
2022/06/01 01:26:08;;;;;;;2.50;1.80;;;17.30;35.70;;;;;;10582913;27;20223;-75
2022/06/01 01:31:16;;;;;;;2.00;1.90;;;17.30;35.10;;;;;;10582279;27;20251;-75
2022/06/01 01:36:24;;;;;;;1.70;1.60;;;17.30;35.20;;;;;;10569778;28;20238;-75
2022/06/01 01:41:34;;;;;;;1.63;1.57;;;17.30;35.20;;;;;;10582001;27;20651;-75
2022/06/01 01:46:37;;;;;;;2.17;1.90;;;17.30;35.60;;;;;;10581357;28;20223;-75
2022/06/01 01:51:41;;;;;;;2.87;2.00;;;17.20;34.70;;;;;;10581055;27;20311;-75
2022/06/01 01:57:03;;;;;;;1.90;1.80;;;17.10;34.30;;;;;;10580542;28;20234;-75
2022/06/01 02:02:16;;;;;;;3.10;2.10;;;17.00;36.20;;;;;;10537730;28;20250;-75
2022/06/01 02:07:25;;;;;;;1.80;1.70;;;16.90;36.20;;;;;;10537927;28;20227;-75
2022/06/01 02:12:42;;;;;;;2.73;2.53;;;16.90;35.70;;;;;;10554395;28;20235;-76
2022/06/01 02:17:49;;;;;;;2.27;2.07;;;16.90;35.60;;;;;;10537366;28;20638;-75
2022/06/01 02:22:54;;;;;;;2.97;2.10;;;16.90;35.80;;;;;;10537574;28;20242;-75
2022/06/01 02:28:00;;;;;;;2.40;2.20;;;16.90;35.30;;;;;;10536521;28;20220;-75
2022/06/01 02:33:07;;;;;;;2.43;1.80;;;16.90;36.40;;;;;;10536534;28;20239;-75
2022/06/01 02:38:14;;;;;;;2.37;2.07;;;16.80;36.30;;;;;;10536381;28;20223;-75
2022/06/01 02:43:18;;;;;;;2.40;2.20;;;16.70;36.70;;;;;;10535694;28;20325;-75
2022/06/01 02:48:21;;;;;;;1.90;1.80;;;16.70;37.00;;;;;;10535816;28;20262;-75
2022/06/01 02:53:26;;;;;;;2.13;2.03;;;16.60;36.30;;;;;;10535405;28;20246;-75
2022/06/01 02:58:30;;;;;;;2.17;1.90;;;16.60;36.70;;;;;;10533981;28;20258;-75
2022/06/01 03:03:33;;;;;;;3.93;2.10;;;16.50;37.00;;;;;;10534295;28;20723;-75
2022/06/01 03:08:36;;;;;;;2.30;2.20;;;16.50;36.40;;;;;;10534804;28;20604;-75
2022/06/01 03:13:41;;;;;;;2.17;1.97;;;16.40;36.60;;;;;;10534098;28;20231;-75
2022/06/01 03:18:44;;;;;;;2.10;1.97;;;16.40;37.40;;;;;;10534052;28;20235;-75
2022/06/01 03:23:47;;;;;;;2.03;1.90;;;16.30;37.20;;;;;;10533610;28;20227;-75
2022/06/01 03:28:52;;;;;;;2.07;1.97;;;16.30;37.40;;;;;;10533586;28;20225;-74
2022/06/01 03:33:55;;;;;;;3.03;2.00;;;16.30;38.30;;;;;;10540363;27;20220;-76
2022/06/01 03:38:58;;;;;;;2.00;1.80;;;16.30;37.80;;;;;;10520004;28;20237;-75
2022/06/01 03:49:25;;;;;;;1.80;1.70;;;16.30;38.90;;;;;;10529371;28;20243;-75
2022/06/01 03:54:28;;;;;;;3.00;2.10;;;16.30;37.70;;;;;;10524349;28;20227;-75
2022/06/01 03:59:33;;;;;;;2.43;2.00;;;16.40;37.80;;;;;;10525241;28;20232;-75
2022/06/01 04:04:37;;;;;;;2.10;1.90;;;16.40;38.40;;;;;;10530536;28;20846;-75
2022/06/01 04:09:40;;;;;;;2.40;2.20;;;16.40;38.00;;;;;;10540667;27;20225;-76
2022/06/01 04:14:47;;;;;;;3.13;2.10;;;16.50;38.00;;;;;;10552148;27;20715;-76
2022/06/01 04:19:50;;;;;;;3.17;2.17;;;16.50;38.90;;;;;;10570201;28;20230;-76
2022/06/01 04:24:53;;;;;;;2.53;2.00;;;16.60;37.90;;;;;;10573290;28;20679;-76
2022/06/01 04:29:58;;;;;;;4.03;2.17;;;16.60;37.90;;;;;;10573971;28;20738;-75
2022/06/01 04:35:02;;;;;;;2.33;2.17;;;16.60;38.70;;;;;;10573546;27;20297;-76
2022/06/01 04:40:06;;;;;;;3.10;2.30;;;16.70;38.50;;;;;;10531986;28;20259;-76
2022/06/01 04:45:13;;;;;;;2.30;2.10;;;16.70;38.70;;;;;;10529966;28;20624;-75
2022/06/01 04:50:16;;;;;;;2.63;2.20;;;16.70;39.40;;;;;;10527819;28;20229;-80
2022/06/01 04:55:19;;;;;;;2.73;2.30;;;16.70;38.60;;;;;;10556142;28;20223;-81
2022/06/01 05:00:24;;;;;;;2.20;2.10;;;16.80;39.00;;;;;;10563461;28;20699;-80
2022/06/01 05:05:28;;;;;;;3.50;2.23;;;16.90;39.70;;;;;;10554859;28;20219;-79
2022/06/01 05:10:31;;;;;;;2.37;2.23;;;17.00;39.40;;;;;;10564243;28;20223;-78
2022/06/01 05:15:45;;;;;;;2.53;2.33;;;17.10;39.70;;;;;;10534010;28;20238;-79
2022/06/01 05:20:48;;;;;;;4.20;2.63;;;17.30;40.80;;;;;;10553007;27;20224;-81
2022/06/01 05:25:54;;;;;;;2.60;2.40;;;17.40;39.70;;;;;;10581369;27;20234;-85
2022/06/01 05:31:00;;;;;;;2.73;2.53;;;17.50;40.50;;;;;;10573242;28;20231;-79
2022/06/01 05:36:04;;;;;;;2.80;2.60;;;17.70;40.60;;;;;;10576136;28;20225;-79
2022/06/01 05:41:08;;;;;;;3.27;2.97;;;17.80;40.10;;;;;;10560900;28;20219;-79
2022/06/01 05:46:13;;;;;;;3.20;2.57;;;18.00;39.80;;;;;;10579497;27;20234;-79
2022/06/01 05:51:16;;;;;;;2.70;2.50;;;18.10;40.20;;;;;;10574634;28;20233;-79
2022/06/01 05:56:19;;;;;;;3.00;2.70;;;18.30;39.50;;;;;;10570313;28;20225;-79
2022/06/01 06:01:24;;;;;;;3.43;2.80;;;18.40;39.60;;;;;;10550906;27;20230;-79
2022/06/01 06:06:28;;;;;;;3.47;3.17;;;18.50;39.80;;;;;;10575052;27;20239;-79
2022/06/01 06:11:35;;;;;;;3.13;2.83;;;18.50;39.50;;;;;;10565503;28;20231;-79
2022/06/01 06:16:43;;;;;;;2.77;2.57;;;18.60;39.90;;;;;;10571712;28;20764;-78
2022/06/01 06:21:46;;;;;;;3.00;2.80;;;18.80;39.80;;;;;;10572351;27;20280;-78
2022/06/01 06:26:50;;;;;;;3.07;2.80;;;18.90;39.20;;;;;;10557066;28;20223;-78
2022/06/01 06:31:55;;;;;;;2.70;2.50;;;19.00;39.30;;;;;;10598557;27;20222;-78
2022/06/01 06:36:58;;;;;;;2.47;2.27;;;19.20;39.40;;;;;;10581070;28;20225;-78
2022/06/01 06:42:01;;;;;;;2.90;2.70;;;19.30;38.80;;;;;;10590056;27;20836;-78
2022/06/01 06:47:06;;;;;;;2.60;2.40;;;19.50;38.80;;;;;;10538486;28;20212;-78
2022/06/01 06:52:09;;;;;;;4.83;2.23;;;19.60;38.80;;;;;;10536518;27;20699;-79
2022/06/01 06:57:13;;;;;;;2.60;2.40;;;19.80;38.70;;;;;;10537213;28;20310;-79
2022/06/01 07:02:17;;;;;;;2.50;2.30;;;19.90;38.30;;;;;;10538329;28;20652;-79
2022/06/01 07:07:21;;;;;;;2.27;2.10;;;20.10;38.20;;;;;;10547715;28;20558;-77
2022/06/01 07:12:24;;;;;;;2.40;2.20;;;20.20;37.90;;;;;;10532732;28;20239;-77
2022/06/01 07:17:29;;;;;;;2.30;2.10;;;20.40;37.80;;;;;;10542267;28;20235;-78
2022/06/01 07:22:32;;;;;;;2.40;2.20;;;20.60;37.10;;;;;;10547179;28;20240;-78
2022/06/01 07:27:36;;;;;;;2.50;2.30;;;20.80;37.20;;;;;;10562866;28;20274;-77
2022/06/01 07:32:49;;;;;;;2.33;2.13;;;21.00;37.40;;;;;;10565867;28;20608;-77
2022/06/01 07:43:17;;;;;;;2.47;2.27;;;21.20;36.00;;;;;;10567819;27;20231;-77
2022/06/01 07:48:23;;;;;;;2.20;1.90;;;21.40;36.90;;;;;;10574257;27;20262;-77
2022/06/01 07:53:46;;;;;;;2.27;2.07;;;21.60;35.40;;;;;;10573325;27;20245;-77
2022/06/01 07:58:49;;;;;;;1.90;1.80;;;21.90;36.00;;;;;;10574125;27;20255;-78
2022/06/01 08:03:56;;;;;;;1.83;1.73;;;22.10;34.70;;;;;;10573662;28;20667;-77
2022/06/01 08:08:59;;;;;;;2.17;1.87;;;22.30;33.50;;;;;;10575093;28;20684;-78
2022/06/01 08:14:03;;;;;;;1.60;1.50;;;22.50;33.90;;;;;;10575245;28;20644;-79
2022/06/01 08:19:07;;;;;;;2.37;2.17;;;22.70;33.70;;;;;;10575547;28;20235;-78
2022/06/01 08:24:11;;;;;;;2.70;2.10;;;22.90;33.30;;;;;;10571759;28;20230;-75
2022/06/01 08:29:15;;;;;;;3.63;2.20;;;23.10;33.20;;;;;;10573443;28;20254;-78
2022/06/01 08:34:19;;;;;;;2.93;2.10;;;23.30;33.00;;;;;;10575466;28;20230;-79
2022/06/01 08:39:22;;;;;;;1.90;1.80;;;23.40;32.40;;;;;;10576693;28;20590;-78
2022/06/01 08:44:31;;;;;;;1.93;1.83;;;23.60;32.90;;;;;;10575146;28;20231;-78
2022/06/01 08:49:37;;;;;;;3.47;1.83;;;23.80;31.20;;;;;;10571944;28;20223;-75
2022/06/01 08:54:40;;;;;;;1.80;1.70;;;24.10;30.50;;;;;;10571745;28;20237;-76
2022/06/01 08:59:50;;;;;;;1.83;1.73;;;24.20;31.70;;;;;;10579198;27;20219;-75
2022/06/01 09:05:02;;;;;;;2.00;1.80;;;24.40;29.10;;;;;;10580092;28;20231;-76
2022/06/01 09:10:36;;;;;;;1.80;1.70;;;24.50;28.80;;;;;;10579739;27;20229;-77
2022/06/01 09:15:45;;;;;;;7.90;7.30;;;24.70;28.10;;;;;;10578786;27;20235;-76
2022/06/01 09:26:24;;;;;;;45.73;15.93;;;24.80;27.40;;;;;;10536321;28;20227;-76
2022/06/01 09:31:31;;;;;;;710.47;242.43;;;24.70;25.50;;;;;;10536296;28;20301;-78
2022/06/01 09:36:50;;;;;;;37.10;14.27;;;24.80;28.00;;;;;;10540159;28;20710;-78
2022/06/01 09:42:06;;;;;;;76.33;68.53;;;24.90;27.60;;;;;;10560400;28;20237;-76
2022/06/01 09:47:09;;;;;;;15.23;13.83;;;25.00;28.70;;;;;;10553551;27;20250;-77
2022/06/01 09:52:25;;;;;;;5.87;5.37;;;25.20;28.00;;;;;;10529571;28;20235;-74
2022/06/01 09:57:34;;;;;;;3.20;2.90;;;25.40;26.10;;;;;;10559253;27;20231;-78
2022/06/01 10:08:16;;;;;;;1.80;1.70;;;25.60;26.40;;;;;;10537221;27;20269;-73
2022/06/01 10:13:28;;;;;;;1.80;1.70;;;25.60;25.60;;;;;;10545159;28;20233;-75
2022/06/01 10:18:34;;;;;;;2.37;1.60;;;25.90;24.70;;;;;;10562906;27;20227;-75
2022/06/01 10:23:44;;;;;;;1.30;1.30;;;26.00;24.90;;;;;;10562150;27;20238;-75
2022/06/01 10:28:53;;;;;;;1.97;1.53;;;26.10;23.80;;;;;;10561747;27;20238;-75
2022/06/01 10:34:02;;;;;;;1.17;1.17;;;26.00;24.20;;;;;;10561320;27;20237;-75
2022/06/01 10:39:10;;;;;;;1.20;1.20;;;26.00;24.30;;;;;;10521568;27;20242;-75
2022/06/01 10:44:20;;;;;;;1.30;1.30;;;26.00;24.20;;;;;;10531594;27;20226;-74
2022/06/01 10:49:42;;;;;;;1.70;1.60;;;26.00;24.50;;;;;;10535123;28;20233;-74
2022/06/01 10:55:00;;;;;;;1.20;1.20;;;26.00;24.60;;;;;;10562991;28;20765;-74
2022/06/01 11:00:05;;;;;;;1.57;1.47;;;26.00;23.90;;;;;;10557431;27;20778;-74
2022/06/01 11:05:23;;;;;;;1.73;1.63;;;26.10;24.30;;;;;;10554487;28;20303;-73
2022/06/01 11:10:40;;;;;;;1.50;1.40;;;26.10;24.00;;;;;;10555456;27;20993;-72
2022/06/01 11:15:59;;;;;;;1.60;1.50;;;26.10;23.30;;;;;;10562358;28;20698;-74
2022/06/01 11:21:12;;;;;;;1.83;1.27;;;26.20;23.70;;;;;;10569654;28;20219;-75
2022/06/01 11:26:29;;;;;;;2.97;1.40;;;26.30;23.20;;;;;;10574845;28;20585;-75
2022/06/01 11:31:33;;;;;;;1.30;1.20;;;26.30;23.20;;;;;;10574773;27;20240;-75
2022/06/01 11:36:44;;;;;;;3.63;1.43;;;26.30;23.60;;;;;;10560146;27;20272;-75
2022/06/01 11:41:58;;;;;;;2.60;1.50;;;26.20;22.70;;;;;;10572694;28;20249;-73
2022/06/01 11:47:06;;;;;;;1.83;1.40;;;26.30;21.90;;;;;;10573544;27;20258;-75
2022/06/01 11:52:34;;;;;;;1.57;1.40;;;26.30;22.80;;;;;;10572518;27;20237;-75
2022/06/01 11:57:47;;;;;;;1.83;1.30;;;26.30;23.40;;;;;;10572436;27;20724;-74
2022/06/01 12:02:51;;;;;;;1.87;1.40;;;26.40;22.50;;;;;;10572541;28;20226;-74
2022/06/01 12:07:58;;;;;;;1.60;1.50;;;26.40;23.10;;;;;;10572795;28;20600;-74
2022/06/01 12:13:06;;;;;;;2.10;1.50;;;26.40;22.20;;;;;;10572410;28;20650;-74
2022/06/01 12:18:29;;;;;;;3.60;1.50;;;26.30;22.20;;;;;;10571891;28;20235;-74
2022/06/01 12:29:42;;;;;;;1.37;1.27;;;26.30;22.60;;;;;;10566161;28;20321;-74
2022/06/01 12:34:58;;;;;;;1.50;1.40;;;26.20;21.90;;;;;;10580849;28;20252;-74
2022/06/01 12:40:05;;;;;;;1.20;1.20;;;26.20;22.10;;;;;;10581695;28;20275;-74
2022/06/01 12:45:14;;;;;;;1.67;1.40;;;26.20;22.10;;;;;;10573304;28;20261;-74
2022/06/01 12:50:20;;;;;;;1.70;1.40;;;26.20;22.60;;;;;;10581360;27;20237;-75
2022/06/01 12:55:25;;;;;;;1.40;1.30;;;26.20;22.30;;;;;;10580110;28;20226;-74
2022/06/01 13:00:33;;;;;;;1.40;1.30;;;26.30;22.40;;;;;;10579892;27;20233;-74
2022/06/01 13:05:41;;;;;;;1.40;1.30;;;26.30;22.20;;;;;;10580077;28;20651;-74
2022/06/01 13:10:44;;;;;;;1.60;1.50;;;26.50;21.40;;;;;;10581303;27;20227;-75
2022/06/01 13:15:58;;;;;;;1.70;1.60;;;26.60;21.30;;;;;;10579873;28;20237;-75
2022/06/01 13:21:07;;;;;;;3.07;1.50;;;26.50;19.70;;;;;;10579578;28;20223;-74
2022/06/01 13:26:15;;;;;;;1.87;1.50;;;26.50;20.50;;;;;;10579215;27;20231;-74
2022/06/01 13:31:20;;;;;;;1.70;1.60;;;26.40;20.80;;;;;;10541839;28;20245;-74
2022/06/01 13:36:29;;;;;;;1.90;1.67;;;26.40;21.00;;;;;;10535868;28;20588;-73
2022/06/01 13:41:39;;;;;;;1.37;1.37;;;26.30;20.60;;;;;;10534854;28;20227;-74
2022/06/01 13:46:49;;;;;;;1.47;1.37;;;26.20;21.20;;;;;;10535494;28;20586;-74
2022/06/01 13:51:58;;;;;;;1.60;1.50;;;26.20;21.50;;;;;;10535298;28;20733;-74
2022/06/01 13:57:11;;;;;;;1.93;1.50;;;26.10;20.80;;;;;;10519588;28;20428;-74
2022/06/01 14:02:22;;;;;;;1.50;1.40;;;26.10;21.00;;;;;;10559653;28;20235;-75
2022/06/01 14:07:26;;;;;;;1.87;1.40;;;26.00;21.40;;;;;;10578300;27;20231;-75
2022/06/01 14:12:29;;;;;;;2.27;1.60;;;26.00;21.70;;;;;;10576925;28;20232;-74
2022/06/01 14:17:34;;;;;;;1.77;1.50;;;25.90;21.60;;;;;;10576319;28;20227;-74
2022/06/01 14:22:39;;;;;;;1.50;1.40;;;25.90;21.30;;;;;;10573710;27;20938;-74
2022/06/01 14:33:06;;;;;;;1.63;1.53;;;25.80;21.50;;;;;;10558794;27;20226;-74
2022/06/01 14:38:11;;;;;;;2.13;1.50;;;25.80;21.20;;;;;;10575394;27;20242;-74
2022/06/01 14:43:14;;;;;;;1.50;1.40;;;25.80;21.30;;;;;;10575059;28;20703;-74
2022/06/01 14:48:19;;;;;;;1.60;1.30;;;25.80;21.10;;;;;;10563895;28;20258;-77
2022/06/01 14:53:25;;;;;;;1.40;1.30;;;25.80;20.80;;;;;;10524219;28;20243;-74
2022/06/01 14:58:28;;;;;;;1.80;1.60;;;25.70;20.80;;;;;;10531214;28;20231;-72
2022/06/01 15:03:39;;;;;;;1.70;1.43;;;25.70;21.20;;;;;;10566035;28;20238;-73
2022/06/01 15:08:42;;;;;;;1.60;1.50;;;25.70;20.60;;;;;;10516135;28;20236;-74
2022/06/01 15:13:45;;;;;;;2.13;1.97;;;25.70;21.00;;;;;;10557513;28;20234;-75
2022/06/01 15:18:53;;;;;;;1.67;1.50;;;25.70;21.50;;;;;;10568480;28;20238;-75
2022/06/01 15:23:57;;;;;;;1.93;1.30;;;25.70;21.70;;;;;;10552145;27;20222;-74
2022/06/01 15:29:00;;;;;;;1.50;1.40;;;25.70;21.80;;;;;;10564574;28;20247;-73
2022/06/01 15:39:30;;;;;;;1.40;1.30;;;25.50;21.90;;;;;;10553935;28;20238;-75
2022/06/01 15:44:35;;;;;;;1.43;1.20;;;25.10;21.80;;;;;;10552638;27;20230;-77
2022/06/01 15:49:41;;;;;;;1.40;1.30;;;24.60;22.20;;;;;;10563141;27;20943;-79
2022/06/01 15:54:45;;;;;;;1.07;1.07;;;24.10;23.00;;;;;;10566929;27;20314;-76
2022/06/01 15:59:48;;;;;;;1.67;1.20;;;23.60;23.20;;;;;;10558825;27;20223;-78
2022/06/01 16:04:54;;;;;;;2.67;1.50;;;23.10;23.70;;;;;;10559846;27;20229;-77
2022/06/01 16:09:57;;;;;;;1.57;1.47;;;22.60;24.20;;;;;;10545000;28;20260;-76
2022/06/01 16:15:00;;;;;;;1.83;1.23;;;22.30;24.50;;;;;;10563719;28;20227;-77
2022/06/01 16:20:07;;;;;;;1.30;1.20;;;22.00;24.90;;;;;;10548741;28;20543;-77
2022/06/01 16:25:11;;;;;;;1.67;1.40;;;21.80;25.60;;;;;;10561789;28;20219;-77
2022/06/01 16:30:15;;;;;;;1.70;1.60;;;21.70;26.00;;;;;;10563894;28;20220;-78
2022/06/01 16:35:22;;;;;;;1.40;1.30;;;21.60;26.00;;;;;;10548842;28;20703;-78
2022/06/01 16:40:25;;;;;;;1.50;1.40;;;21.50;26.30;;;;;;10527186;28;20235;-76
2022/06/01 16:45:34;;;;;;;1.60;1.50;;;21.40;26.30;;;;;;10533830;28;20698;-77
2022/06/01 16:50:39;;;;;;;2.70;2.50;;;21.30;27.10;;;;;;10539164;28;20335;-76
2022/06/01 16:55:42;;;;;;;1.97;1.63;;;21.20;26.80;;;;;;10537875;28;20227;-80
2022/06/01 17:00:45;;;;;;;2.10;1.70;;;21.10;26.90;;;;;;10534186;28;20226;-79
2022/06/01 17:05:50;;;;;;;2.23;1.80;;;21.00;27.50;;;;;;10549362;28;20219;-81
2022/06/01 17:10:53;;;;;;;2.07;1.40;;;20.80;28.30;;;;;;10549571;28;20834;-79
2022/06/01 17:15:57;;;;;;;2.03;1.43;;;20.70;28.00;;;;;;10554986;28;20227;-80
2022/06/01 17:21:02;;;;;;;1.97;1.77;;;20.50;28.30;;;;;;10558207;27;20314;-80
2022/06/01 17:26:06;;;;;;;1.70;1.60;;;20.30;29.40;;;;;;10562852;27;20247;-79
2022/06/01 17:31:12;;;;;;;2.50;2.00;;;20.10;29.10;;;;;;10561000;27;20234;-77
2022/06/01 17:36:18;;;;;;;3.50;1.63;;;19.90;29.90;;;;;;10554119;27;20218;-77
2022/06/01 17:41:21;;;;;;;2.10;1.77;;;19.80;30.40;;;;;;10543672;27;20576;-76
2022/06/01 17:46:25;;;;;;;2.00;1.90;;;19.60;30.00;;;;;;10510391;28;20318;-77
2022/06/01 17:51:30;;;;;;;1.97;1.77;;;19.50;30.70;;;;;;10503616;28;20289;-77
2022/06/01 17:56:36;;;;;;;2.20;1.90;;;19.40;31.50;;;;;;10507988;28;20233;-77
2022/06/01 18:01:39;;;;;;;1.80;1.70;;;19.30;31.30;;;;;;10516876;28;20236;-76
2022/06/01 18:06:44;;;;;;;1.90;1.80;;;19.30;31.20;;;;;;10513705;28;20224;-76
2022/06/01 18:11:47;;;;;;;1.87;1.70;;;19.20;32.10;;;;;;10512102;28;20236;-76
2022/06/01 18:16:50;;;;;;;1.77;1.67;;;19.10;31.60;;;;;;10511143;28;20223;-77
2022/06/01 18:21:56;;;;;;;2.40;2.20;;;19.10;32.00;;;;;;10505061;28;20234;-76
2022/06/01 18:27:01;;;;;;;2.43;2.00;;;19.10;33.00;;;;;;10516431;28;20227;-78
2022/06/01 18:32:05;;;;;;;2.00;1.80;;;19.10;32.30;;;;;;10533726;28;20226;-78
2022/06/01 18:37:26;;;;;;;2.30;2.10;;;19.10;32.40;;;;;;10527936;28;20243;-78
2022/06/01 18:42:29;;;;;;;1.80;1.70;;;19.10;33.00;;;;;;10523018;28;20236;-78
2022/06/01 18:47:32;;;;;;;2.10;1.90;;;19.10;32.50;;;;;;10511728;28;20224;-79
2022/06/01 18:52:37;;;;;;;2.03;1.93;;;19.10;32.50;;;;;;10516398;28;20231;-79
2022/06/01 18:57:41;;;;;;;3.30;1.80;;;19.10;33.40;;;;;;10506957;28;20281;-79
2022/06/01 19:02:45;;;;;;;2.13;1.93;;;19.10;33.00;;;;;;10508927;28;20228;-78
2022/06/01 19:07:49;;;;;;;2.23;2.13;;;19.00;32.90;;;;;;10508182;28;20243;-79
2022/06/01 19:12:56;;;;;;;2.27;2.07;;;19.00;33.60;;;;;;10513923;28;20227;-79
2022/06/01 19:18:02;;;;;;;2.17;1.97;;;19.00;33.10;;;;;;10513154;28;20231;-77
2022/06/01 19:23:07;;;;;;;1.90;1.80;;;19.00;33.00;;;;;;10511126;28;20215;-79
2022/06/01 19:28:14;;;;;;;1.93;1.80;;;19.10;33.90;;;;;;10513180;28;20608;-78
2022/06/01 19:33:18;;;;;;;2.20;2.00;;;19.10;34.20;;;;;;10510679;28;20219;-77
2022/06/01 19:49:08;;;;;;;2.77;2.43;;;19.10;34.00;;;;;;10535748;28;20227;-78
2022/06/01 19:54:14;;;;;;;2.80;2.30;;;19.10;33.40;;;;;;10556548;28;20318;-76
2022/06/01 19:59:19;;;;;;;2.50;2.30;;;19.20;34.20;;;;;;10553860;28;20595;-78
2022/06/01 20:04:25;;;;;;;3.70;2.50;;;19.20;33.60;;;;;;10556536;28;20280;-77
2022/06/01 20:09:30;;;;;;;2.87;2.40;;;19.20;33.70;;;;;;10570937;27;20233;-76
2022/06/01 20:14:34;;;;;;;2.53;2.33;;;19.30;34.30;;;;;;10562345;28;20309;-78
2022/06/01 20:19:37;;;;;;;2.60;2.40;;;19.30;33.70;;;;;;10542639;28;20253;-78
2022/06/01 20:24:43;;;;;;;2.17;2.00;;;19.30;33.70;;;;;;10545066;28;20228;-78
2022/06/01 20:29:46;;;;;;;2.07;1.97;;;19.30;34.50;;;;;;10540736;27;20223;-78
2022/06/01 20:34:49;;;;;;;2.20;2.00;;;19.30;33.90;;;;;;10545399;28;20222;-78
2022/06/01 20:39:54;;;;;;;2.50;2.30;;;19.30;34.00;;;;;;10551119;28;20233;-77
2022/06/01 20:44:57;;;;;;;2.40;2.20;;;19.30;34.70;;;;;;10547693;28;20220;-78
2022/06/01 20:50:01;;;;;;;2.60;2.40;;;19.30;34.20;;;;;;10540508;27;20745;-78
2022/06/01 20:55:08;;;;;;;2.63;2.43;;;19.20;34.30;;;;;;10561424;27;20214;-78
2022/06/01 21:00:17;;;;;;;3.83;2.50;;;19.20;35.70;;;;;;10560285;27;20215;-81
2022/06/01 21:05:20;;;;;;;2.47;2.27;;;19.10;35.70;;;;;;10556462;27;20223;-77
2022/06/01 21:10:26;;;;;;;2.70;2.50;;;19.10;34.70;;;;;;10558954;27;20227;-77
2022/06/01 21:15:29;;;;;;;2.73;2.50;;;19.00;35.60;;;;;;10560293;28;20234;-78
2022/06/01 21:20:32;;;;;;;3.57;2.30;;;18.90;35.30;;;;;;10563206;28;20238;-78
2022/06/01 21:25:37;;;;;;;2.50;2.30;;;18.90;36.20;;;;;;10565173;28;20267;-78
2022/06/01 21:30:41;;;;;;;2.80;2.60;;;18.90;35.50;;;;;;10559283;27;20223;-77
2022/06/01 21:35:44;;;;;;;2.90;2.70;;;18.90;35.50;;;;;;10559827;27;20237;-77
2022/06/01 21:40:49;;;;;;;3.17;2.30;;;18.90;35.50;;;;;;10565656;27;20226;-77
2022/06/01 21:45:54;;;;;;;2.63;2.43;;;18.90;35.50;;;;;;10558274;27;20231;-76
2022/06/01 21:50:57;;;;;;;3.07;2.60;;;18.80;35.50;;;;;;10559274;27;20228;-77
2022/06/01 21:56:02;;;;;;;2.63;2.43;;;18.90;35.50;;;;;;10569171;28;20257;-77
2022/06/01 22:01:07;;;;;;;3.90;2.60;;;18.80;36.00;;;;;;10540318;28;20738;-77
2022/06/01 22:06:10;;;;;;;2.73;2.53;;;18.80;35.50;;;;;;10557563;27;20620;-77
2022/06/01 22:16:35;;;;;;;2.70;2.50;;;18.70;35.90;;;;;;10556781;28;20227;-77
2022/06/01 22:21:39;;;;;;;3.20;2.43;;;18.70;35.40;;;;;;10557738;28;20724;-77
2022/06/01 22:26:44;;;;;;;2.43;2.33;;;18.70;35.40;;;;;;10555958;28;20231;-77
2022/06/01 22:31:47;;;;;;;2.33;2.20;;;18.70;36.10;;;;;;10554681;27;20231;-77
2022/06/01 22:42:15;;;;;;;2.40;2.30;;;18.80;35.50;;;;;;10554081;28;20730;-77
2022/06/01 22:47:22;;;;;;;2.50;2.40;;;18.80;35.70;;;;;;10564170;27;20225;-77
2022/06/01 22:52:32;;;;;;;2.70;2.50;;;18.80;35.50;;;;;;10559544;28;20462;-77
2022/06/01 22:57:37;;;;;;;2.63;2.43;;;18.80;36.10;;;;;;10565011;28;20308;-77
2022/06/01 23:02:42;;;;;;;2.50;2.30;;;18.80;35.50;;;;;;10557980;28;20235;-77
2022/06/01 23:07:46;;;;;;;2.27;2.17;;;18.80;35.50;;;;;;10556172;28;20235;-77
2022/06/01 23:12:55;;;;;;;2.43;2.30;;;18.70;35.40;;;;;;10551964;28;20272;-77
2022/06/01 23:17:58;;;;;;;2.60;2.40;;;18.70;35.90;;;;;;10547666;27;20250;-77
2022/06/01 23:23:04;;;;;;;2.97;2.70;;;18.70;35.40;;;;;;10556043;28;20752;-77
2022/06/01 23:28:09;;;;;;;2.30;2.20;;;18.70;35.40;;;;;;10549272;27;20215;-77
2022/06/01 23:33:28;;;;;;;2.77;2.30;;;18.60;35.30;;;;;;10564359;28;20225;-77
2022/06/01 23:38:53;;;;;;;2.70;2.50;;;18.60;35.70;;;;;;10549528;27;20278;-77
2022/06/01 23:44:16;;;;;;;2.50;2.30;;;18.50;35.80;;;;;;10552787;28;20314;-77
2022/06/01 23:49:32;;;;;;;2.53;2.33;;;18.40;35.50;;;;;;10556597;28;20671;-77
2022/06/01 23:54:56;;;;;;;4.50;2.80;;;18.30;35.80;;;;;;10559744;28;20231;-77
